createdAt,value
2018-08-08T00:02:02.662Z,20.70
2018-08-08T00:04:32.041Z,20.60
2018-08-08T00:07:01.487Z,20.60
2018-08-08T00:09:30.871Z,20.60
2018-08-08T00:12:01.335Z,20.60
2018-08-08T00:14:30.741Z,20.70
2018-08-08T00:17:00.898Z,20.60
2018-08-08T00:19:30.326Z,20.60
2018-08-08T00:22:00.651Z,20.40
2018-08-08T00:24:30.842Z,20.00
2018-08-08T00:27:00.201Z,19.70
2018-08-08T00:29:29.703Z,19.50
2018-08-08T00:31:59.146Z,19.60
2018-08-08T00:34:28.498Z,19.80
2018-08-08T00:36:57.883Z,19.90
2018-08-08T00:39:27.182Z,19.80
2018-08-08T00:41:57.632Z,19.70
2018-08-08T00:44:27.028Z,19.70
2018-08-08T00:46:56.443Z,19.70
2018-08-08T00:49:25.825Z,19.70
2018-08-08T00:51:56.243Z,19.60
2018-08-08T00:54:25.593Z,19.50
2018-08-08T00:56:54.973Z,19.20
2018-08-08T00:59:24.325Z,19.40
2018-08-08T01:01:53.819Z,19.40
2018-08-08T01:06:52.353Z,18.90
2018-08-08T01:09:21.745Z,18.70
2018-08-08T01:11:53.169Z,18.90
2018-08-08T01:14:22.597Z,18.90
2018-08-08T01:16:51.969Z,18.70
2018-08-08T01:19:21.364Z,18.60
2018-08-08T01:21:51.860Z,18.50
2018-08-08T01:24:21.313Z,18.60
2018-08-08T01:26:50.805Z,18.50
2018-08-08T01:29:20.244Z,18.20
2018-08-08T01:31:50.741Z,17.80
2018-08-08T01:34:20.202Z,17.70
2018-08-08T01:36:49.654Z,17.90
2018-08-08T01:39:19.275Z,18.00
2018-08-08T01:41:49.713Z,18.20
2018-08-08T01:44:19.056Z,18.30
2018-08-08T01:46:48.406Z,18.40
2018-08-08T01:49:17.885Z,18.50
2018-08-08T01:51:48.239Z,18.50
2018-08-08T01:54:17.538Z,18.10
2018-08-08T01:56:46.942Z,18.00
2018-08-08T01:59:16.328Z,18.20
2018-08-08T02:01:46.718Z,18.20
2018-08-08T02:04:16.055Z,18.10
2018-08-08T02:06:45.469Z,18.10
2018-08-08T02:09:14.845Z,18.20
2018-08-08T02:11:45.210Z,18.10
2018-08-08T02:14:14.605Z,18.10
2018-08-08T02:16:44.045Z,18.20
2018-08-08T02:19:13.453Z,18.20
2018-08-08T02:21:44.068Z,18.20
2018-08-08T02:24:13.478Z,18.00
2018-08-08T02:26:42.917Z,17.90
2018-08-08T02:29:18.961Z,17.90
2018-08-08T02:31:49.362Z,18.00
2018-08-08T02:34:18.954Z,18.00
2018-08-08T02:36:48.302Z,18.00
2018-08-08T02:39:17.851Z,18.00
2018-08-08T02:41:49.254Z,17.90
2018-08-08T02:44:18.619Z,17.70
2018-08-08T02:46:47.941Z,17.80
2018-08-08T02:49:17.335Z,17.70
2018-08-08T02:51:48.821Z,17.60
2018-08-08T02:54:18.239Z,17.60
2018-08-08T02:56:47.634Z,17.50
2018-08-08T02:59:17.025Z,17.60
2018-08-08T03:01:48.415Z,17.60
2018-08-08T03:04:17.850Z,17.40
2018-08-08T03:06:47.267Z,17.20
2018-08-08T03:09:16.627Z,17.20
2018-08-08T03:11:48.009Z,17.40
2018-08-08T03:14:17.359Z,17.40
2018-08-08T03:16:46.758Z,17.40
2018-08-08T03:19:16.096Z,17.40
2018-08-08T03:21:45.568Z,17.30
2018-08-08T03:24:14.930Z,17.00
2018-08-08T03:26:44.385Z,16.80
2018-08-08T03:29:13.658Z,16.80
2018-08-08T03:31:49.052Z,16.70
2018-08-08T03:34:20.529Z,16.70
2018-08-08T03:36:49.913Z,16.70
2018-08-08T03:39:19.327Z,16.70
2018-08-08T03:41:49.781Z,16.80
2018-08-08T03:44:19.129Z,16.90
2018-08-08T03:46:48.516Z,16.90
2018-08-08T03:49:17.881Z,16.90
2018-08-08T03:51:52.207Z,16.80
2018-08-08T03:54:21.709Z,16.90
2018-08-08T03:56:51.090Z,17.10
2018-08-08T03:59:20.574Z,16.80
2018-08-08T04:01:52.065Z,16.90
2018-08-08T04:04:21.482Z,16.80
2018-08-08T04:06:50.878Z,16.90
2018-08-08T04:09:20.274Z,17.00
2018-08-08T04:11:50.713Z,17.10
2018-08-08T04:14:20.118Z,17.30
2018-08-08T04:16:49.542Z,17.20
2018-08-08T04:19:18.945Z,17.20
2018-08-08T04:21:48.461Z,17.00
2018-08-08T04:24:17.822Z,17.00
2018-08-08T04:26:47.312Z,17.00
2018-08-08T04:29:19.667Z,16.90
2018-08-08T04:31:53.584Z,17.00
2018-08-08T04:34:22.941Z,17.10
2018-08-08T04:36:52.389Z,17.20
2018-08-08T04:39:21.798Z,17.40
2018-08-08T04:41:52.322Z,17.50
2018-08-08T04:44:21.705Z,17.40
2018-08-08T04:46:51.161Z,17.30
2018-08-08T04:49:20.610Z,17.40
2018-08-08T04:51:51.081Z,17.50
2018-08-08T04:54:20.449Z,17.40
2018-08-08T04:56:49.866Z,17.30
2018-08-08T04:59:19.285Z,17.30
2018-08-08T05:01:49.914Z,17.40
2018-08-08T05:04:19.377Z,17.50
2018-08-08T05:09:17.830Z,17.70
2018-08-08T05:11:49.189Z,17.80
2018-08-08T05:14:18.574Z,17.80
2018-08-08T05:16:48.030Z,18.00
2018-08-08T05:19:17.435Z,18.20
2018-08-08T05:21:56.400Z,18.50
2018-08-08T05:24:25.645Z,18.70
2018-08-08T05:26:55.091Z,18.60
2018-08-08T05:31:54.773Z,19.00
2018-08-08T05:34:24.148Z,18.90
2018-08-08T05:36:53.489Z,18.70
2018-08-08T05:39:22.825Z,18.80
2018-08-08T05:41:53.369Z,18.80
2018-08-08T05:44:22.748Z,18.90
2018-08-08T05:46:52.091Z,19.10
2018-08-08T05:49:21.495Z,19.10
2018-08-08T05:51:50.974Z,19.00
2018-08-08T05:54:20.301Z,19.10
2018-08-08T05:56:49.654Z,19.20
2018-08-08T05:59:19.068Z,19.20
2018-08-08T06:01:49.596Z,19.20
2018-08-08T06:04:18.993Z,19.20
2018-08-08T06:06:48.384Z,19.50
2018-08-08T06:09:17.817Z,19.50
2018-08-08T06:11:48.369Z,19.60
2018-08-08T06:14:17.797Z,19.80
2018-08-08T06:16:47.206Z,19.80
2018-08-08T06:19:16.650Z,19.80
2018-08-08T06:21:47.309Z,20.00
2018-08-08T06:24:16.689Z,20.20
2018-08-08T06:26:46.089Z,20.20
2018-08-08T06:29:15.594Z,20.20
2018-08-08T06:31:45.042Z,20.30
2018-08-08T06:34:14.465Z,20.20
2018-08-08T06:36:43.944Z,20.30
2018-08-08T06:39:14.660Z,20.30
2018-08-08T06:41:44.381Z,20.40
2018-08-08T06:44:14.222Z,20.40
2018-08-08T06:46:43.642Z,20.50
2018-08-08T06:49:13.184Z,20.60
2018-08-08T06:51:56.491Z,20.90
2018-08-08T06:54:25.914Z,21.20
2018-08-08T06:56:55.370Z,21.70
2018-08-08T06:59:24.989Z,22.10
2018-08-08T07:01:58.249Z,22.40
2018-08-08T07:04:27.615Z,22.60
2018-08-08T07:09:26.085Z,23.20
2018-08-08T07:11:55.579Z,23.60
2018-08-08T07:14:25.161Z,24.00
2018-08-08T07:19:23.599Z,24.50
2018-08-08T07:21:56.657Z,24.70
2018-08-08T07:26:55.183Z,25.50
2018-08-08T07:29:24.595Z,26.00
2018-08-08T07:31:55.201Z,26.50
2018-08-08T07:34:58.590Z,27.10
2018-08-08T07:37:27.795Z,27.10
2018-08-08T07:39:56.970Z,27.40
2018-08-08T07:42:27.216Z,27.80
2018-08-08T07:44:56.381Z,28.10
2018-08-08T07:47:25.750Z,28.10
2018-08-08T07:49:55.159Z,27.90
2018-08-08T07:54:55.881Z,28.70
2018-08-08T08:02:41.804Z,27.80
2018-08-08T08:05:11.293Z,27.40
2018-08-08T08:07:40.783Z,26.90
2018-08-08T08:10:10.571Z,26.90
2018-08-08T08:12:44.517Z,26.80
2018-08-08T08:15:13.977Z,26.60
2018-08-08T08:17:43.877Z,26.10
2018-08-08T08:20:15.366Z,26.30
2018-08-08T08:22:45.625Z,26.40
2018-08-08T08:25:15.247Z,26.60
2018-08-08T08:27:44.742Z,26.50
2018-08-08T08:30:15.635Z,26.60
2018-08-08T08:32:45.589Z,26.50
2018-08-08T08:35:15.073Z,26.40
2018-08-08T08:37:44.683Z,26.40
2018-08-08T08:40:14.518Z,26.60
2018-08-08T08:42:44.369Z,26.50
2018-08-08T08:45:13.821Z,26.40
2018-08-08T08:47:43.242Z,26.40
2018-08-08T08:50:12.638Z,26.40
2018-08-08T08:52:41.945Z,26.70
2018-08-08T08:55:11.326Z,26.80
2018-08-08T08:57:40.768Z,26.90
2018-08-08T09:00:13.371Z,26.80
2018-08-08T09:02:43.520Z,26.70
2018-08-08T09:05:12.856Z,26.60
2018-08-08T09:07:43.021Z,26.50
2018-08-08T09:10:12.651Z,26.30
2018-08-08T09:12:42.499Z,26.10
2018-08-08T09:15:13.077Z,26.10
2018-08-08T09:17:42.198Z,26.20
2018-08-08T09:20:11.344Z,26.20
2018-08-08T09:22:40.582Z,26.30
2018-08-08T09:25:09.705Z,26.20
2018-08-08T09:27:38.772Z,26.40
2018-08-08T09:30:11.147Z,26.60
2018-08-08T09:32:43.805Z,26.60
2018-08-08T09:35:13.573Z,26.30
2018-08-08T09:37:42.990Z,26.50
2018-08-08T09:40:12.721Z,26.60
2018-08-08T09:42:42.069Z,26.60
2018-08-08T09:45:11.557Z,26.60
2018-08-08T09:47:40.898Z,26.50
2018-08-08T09:50:10.581Z,26.60
2018-08-08T09:52:41.934Z,26.50
2018-08-08T09:55:11.325Z,26.60
2018-08-08T09:57:40.725Z,26.50
2018-08-08T10:00:11.047Z,26.60
2018-08-08T10:02:44.449Z,26.60
2018-08-08T10:05:13.837Z,26.60
2018-08-08T10:07:43.178Z,26.90
2018-08-08T10:10:12.665Z,27.10
2018-08-08T10:12:42.073Z,27.20
2018-08-08T10:15:11.461Z,27.20
2018-08-08T10:17:40.941Z,27.70
2018-08-08T10:20:10.378Z,28.30
2018-08-08T10:27:43.286Z,29.10
2018-08-08T10:30:13.761Z,29.00
2018-08-08T10:37:42.235Z,29.70
2018-08-08T10:47:39.785Z,30.10
2018-08-08T10:50:09.216Z,30.40
2018-08-08T10:52:46.023Z,30.30
2018-08-08T10:57:44.701Z,29.80
2018-08-08T11:00:14.077Z,30.00
2018-08-08T11:02:43.411Z,30.10
2018-08-08T11:05:12.802Z,30.50
2018-08-08T11:07:42.218Z,30.70
2018-08-08T11:10:11.612Z,31.40
2018-08-08T11:17:39.205Z,30.90
2018-08-08T11:25:09.981Z,30.40
2018-08-08T11:27:39.482Z,31.40
2018-08-08T11:30:09.213Z,31.90
2018-08-08T11:32:40.641Z,31.70
2018-08-08T11:35:10.031Z,31.90
2018-08-08T11:37:39.589Z,32.60
2018-08-08T11:40:09.057Z,32.50
2018-08-08T11:42:41.772Z,32.60
2018-08-08T11:45:11.263Z,33.10
2018-08-08T11:47:40.566Z,33.70
2018-08-08T11:50:10.323Z,33.40
2018-08-08T11:52:41.906Z,32.60
2018-08-08T11:55:11.489Z,31.80
2018-08-08T12:00:10.298Z,32.70
2018-08-08T12:02:40.723Z,32.60
2018-08-08T12:05:10.313Z,32.80
2018-08-08T12:07:39.748Z,32.70
2018-08-08T12:10:09.226Z,33.00
2018-08-08T12:12:39.666Z,32.40
2018-08-08T12:17:39.146Z,33.30
2018-08-08T12:20:08.521Z,33.90
2018-08-08T12:22:39.091Z,34.00
2018-08-08T12:25:08.441Z,34.30
2018-08-08T12:27:37.812Z,33.70
2018-08-08T12:30:09.397Z,34.00
2018-08-08T12:32:41.274Z,34.40
2018-08-08T12:35:10.805Z,34.00
2018-08-08T12:37:40.282Z,33.60
2018-08-08T12:40:10.261Z,33.80
2018-08-08T12:43:01.287Z,34.50
2018-08-08T12:45:30.762Z,34.30
2018-08-08T12:48:00.195Z,35.40
2018-08-08T12:50:29.669Z,35.20
2018-08-08T12:52:58.998Z,34.90
2018-08-08T12:55:28.473Z,35.20
2018-08-08T13:00:43.882Z,35.20
2018-08-08T13:03:13.209Z,35.30
2018-08-08T13:05:42.815Z,34.30
2018-08-08T13:08:12.250Z,34.70
2018-08-08T13:13:12.978Z,35.80
2018-08-08T13:15:42.373Z,36.40
2018-08-08T13:18:11.884Z,37.40
2018-08-08T13:20:49.570Z,36.40
2018-08-08T13:25:48.153Z,34.60
2018-08-08T13:28:17.606Z,34.50
2018-08-08T13:30:49.021Z,34.50
2018-08-08T13:33:18.559Z,35.40
2018-08-08T13:35:47.958Z,35.50
2018-08-08T13:40:53.753Z,36.40
2018-08-08T13:43:23.179Z,36.80
2018-08-08T13:45:56.445Z,37.50
2018-08-08T13:48:25.995Z,36.80
2018-08-08T13:50:59.080Z,37.20
2018-08-08T13:53:28.420Z,36.20
2018-08-08T13:55:57.958Z,36.30
2018-08-08T13:58:27.519Z,36.10
2018-08-08T14:01:06.512Z,36.20
2018-08-08T14:03:35.863Z,35.90
2018-08-08T14:06:05.242Z,36.30
2018-08-08T14:08:34.620Z,37.00
2018-08-08T14:16:19.061Z,36.90
2018-08-08T14:18:48.173Z,37.80
2018-08-08T14:21:23.189Z,37.60
2018-08-08T14:23:52.317Z,37.20
2018-08-08T14:26:21.440Z,36.80
2018-08-08T14:31:20.696Z,36.80
2018-08-08T14:33:50.286Z,37.20
2018-08-08T14:36:19.437Z,38.40
2018-08-08T14:38:48.564Z,37.00
2018-08-08T14:41:18.853Z,37.60
2018-08-08T14:43:47.993Z,37.70
2018-08-08T14:46:17.413Z,37.20
2018-08-08T14:48:46.854Z,37.30
2018-08-08T14:51:24.797Z,37.20
2018-08-08T14:53:54.211Z,38.00
2018-08-08T14:56:23.577Z,37.70
2018-08-08T14:58:52.969Z,38.00
2018-08-08T15:01:22.490Z,37.30
2018-08-08T15:03:51.877Z,37.60
2018-08-08T15:06:21.385Z,37.30
2018-08-08T15:08:50.730Z,37.50
2018-08-08T15:11:22.267Z,38.00
2018-08-08T15:16:20.796Z,36.80
2018-08-08T15:18:50.099Z,36.70
2018-08-08T15:21:21.589Z,38.00
2018-08-08T15:26:19.989Z,37.20
2018-08-08T15:28:49.473Z,37.30
2018-08-08T15:31:27.657Z,36.40
2018-08-08T15:33:56.973Z,36.90
2018-08-08T15:36:26.365Z,36.60
2018-08-08T15:38:55.814Z,36.40
2018-08-08T15:41:32.805Z,36.90
2018-08-08T15:46:31.273Z,37.40
2018-08-08T15:51:30.814Z,37.50
2018-08-08T15:54:00.402Z,36.90
2018-08-08T15:58:59.040Z,37.50
2018-08-08T16:01:31.977Z,37.30
2018-08-08T16:04:01.618Z,36.60
2018-08-08T16:06:31.006Z,36.40
2018-08-08T16:09:00.369Z,35.90
2018-08-08T16:11:29.833Z,35.00
2018-08-08T16:13:59.273Z,35.10
2018-08-08T16:16:28.733Z,34.60
2018-08-08T16:18:58.112Z,34.40
2018-08-08T16:21:28.605Z,34.80
2018-08-08T16:23:58.045Z,34.90
2018-08-08T16:26:27.373Z,35.00
2018-08-08T16:28:56.825Z,35.40
2018-08-08T16:31:28.297Z,35.20
2018-08-08T16:33:57.730Z,35.50
2018-08-08T16:36:27.139Z,34.70
2018-08-08T16:38:56.721Z,34.70
2018-08-08T16:41:28.133Z,34.70
2018-08-08T16:43:57.513Z,34.60
2018-08-08T16:46:26.978Z,34.30
2018-08-08T16:48:56.340Z,34.00
2018-08-08T16:51:26.501Z,34.10
2018-08-08T16:53:55.894Z,34.50
2018-08-08T16:56:25.383Z,34.20
2018-08-08T17:01:29.312Z,32.60
2018-08-08T17:03:58.633Z,32.40
2018-08-08T17:08:56.996Z,31.90
2018-08-08T17:11:28.362Z,31.90
2018-08-08T17:13:57.849Z,31.60
2018-08-08T17:16:27.325Z,32.10
2018-08-08T17:18:56.708Z,31.90
2018-08-08T17:21:28.202Z,32.10
2018-08-08T17:23:57.889Z,32.00
2018-08-08T17:26:27.944Z,31.80
2018-08-08T17:28:57.381Z,31.70
2018-08-08T17:31:52.217Z,31.60
2018-08-08T17:34:21.635Z,31.60
2018-08-08T17:36:50.933Z,31.70
2018-08-08T17:39:20.772Z,31.50
2018-08-08T17:41:50.177Z,31.60
2018-08-08T17:44:19.606Z,31.20
2018-08-08T17:49:18.475Z,30.90
2018-08-08T17:51:48.910Z,31.10
2018-08-08T17:54:18.290Z,31.10
2018-08-08T17:56:47.735Z,31.10
2018-08-08T17:59:17.189Z,31.00
2018-08-08T18:01:47.622Z,30.80
2018-08-08T18:04:18.093Z,30.90
2018-08-08T18:06:47.605Z,30.60
2018-08-08T18:09:16.937Z,30.50
2018-08-08T18:11:48.326Z,30.50
2018-08-08T18:14:17.787Z,30.30
2018-08-08T18:16:47.276Z,30.20
2018-08-08T18:19:16.699Z,30.10
2018-08-08T18:21:48.119Z,29.90
2018-08-08T18:24:17.639Z,29.80
2018-08-08T18:26:47.031Z,29.60
2018-08-08T18:29:16.470Z,29.50
2018-08-08T18:32:25.821Z,29.30
2018-08-08T18:34:55.241Z,29.30
2018-08-08T18:37:24.653Z,29.20
2018-08-08T18:39:53.817Z,29.20
2018-08-08T18:42:23.324Z,29.20
2018-08-08T18:44:52.674Z,29.10
2018-08-08T18:47:21.993Z,29.10
2018-08-08T18:49:51.463Z,29.10
2018-08-08T18:52:22.849Z,29.00
2018-08-08T18:54:52.169Z,29.00
2018-08-08T18:57:21.577Z,28.90
2018-08-08T18:59:50.688Z,28.90
2018-08-08T19:02:21.844Z,28.70
2018-08-08T19:04:50.924Z,28.60
2018-08-08T19:07:20.079Z,28.50
2018-08-08T19:09:49.205Z,28.50
2018-08-08T19:12:19.324Z,28.40
2018-08-08T19:14:48.420Z,28.30
2018-08-08T19:17:17.549Z,28.20
2018-08-08T19:19:59.778Z,28.10
2018-08-08T19:25:09.413Z,28.00
2018-08-08T19:27:39.745Z,28.00
2018-08-08T19:30:09.746Z,27.90
2018-08-08T19:35:13.501Z,27.70
2018-08-08T19:37:42.650Z,27.70
2018-08-08T19:40:11.794Z,27.70
2018-08-08T19:42:41.101Z,27.60
2018-08-08T19:45:10.345Z,27.50
2018-08-08T19:47:39.737Z,27.50
2018-08-08T19:50:09.109Z,27.30
2018-08-08T19:52:39.457Z,27.20
2018-08-08T19:55:09.526Z,27.20
2018-08-08T19:57:39.017Z,27.10
2018-08-08T20:00:08.389Z,27.10
2018-08-08T20:02:38.205Z,27.00
2018-08-08T20:07:36.808Z,26.70
2018-08-08T20:10:06.264Z,26.50
2018-08-08T20:12:36.528Z,26.30
2018-08-08T20:15:05.960Z,26.30
2018-08-08T20:17:35.485Z,26.20
2018-08-08T20:22:41.740Z,25.90
2018-08-08T20:25:10.944Z,25.80
2018-08-08T20:27:39.973Z,25.80
2018-08-08T20:30:09.104Z,25.60
2018-08-08T20:32:38.296Z,25.50
2018-08-08T20:35:07.422Z,25.40
2018-08-08T20:37:36.500Z,25.40
2018-08-08T20:40:05.632Z,25.40
2018-08-08T20:42:39.353Z,25.40
2018-08-08T20:45:08.532Z,25.40
2018-08-08T20:47:37.652Z,25.40
2018-08-08T20:50:06.876Z,25.30
2018-08-08T20:52:41.125Z,25.30
2018-08-08T20:55:10.516Z,25.20
2018-08-08T20:57:39.858Z,25.20
2018-08-08T21:00:09.321Z,25.10
2018-08-08T21:02:38.795Z,25.10
2018-08-08T21:05:08.226Z,24.90
2018-08-08T21:07:37.694Z,25.00
2018-08-08T21:12:36.245Z,24.70
2018-08-08T21:20:03.882Z,24.50
2018-08-08T21:25:02.919Z,24.30
2018-08-08T21:37:28.546Z,24.20
2018-08-08T21:39:57.885Z,24.20
2018-08-08T21:42:59.325Z,24.10
2018-08-08T21:45:28.691Z,23.90
2018-08-08T21:47:58.129Z,23.70
2018-08-08T22:03:55.913Z,23.50
2018-08-08T22:09:22.377Z,23.10
2018-08-08T22:12:19.962Z,23.00
2018-08-08T22:16:05.597Z,23.00
2018-08-08T22:18:51.703Z,23.10
2018-08-08T22:21:23.277Z,23.10
2018-08-08T22:23:52.784Z,23.00
2018-08-08T22:26:22.282Z,22.90
2018-08-08T22:28:51.780Z,22.90
2018-08-08T22:31:33.661Z,23.00
2018-08-08T22:34:03.106Z,22.90
2018-08-08T22:36:32.398Z,22.90
2018-08-08T22:39:02.526Z,22.90
2018-08-08T22:42:04.816Z,22.80
2018-08-08T22:44:34.172Z,22.60
2018-08-08T22:47:03.541Z,22.60
2018-08-08T22:49:32.940Z,22.50
2018-08-08T22:52:07.330Z,22.20
2018-08-08T22:54:44.992Z,22.30
2018-08-08T22:57:14.072Z,22.40
2018-08-08T22:59:43.173Z,22.40
2018-08-08T23:02:12.396Z,22.20
2018-08-08T23:04:41.754Z,22.00
2018-08-08T23:07:12.207Z,21.90
2018-08-08T23:09:41.554Z,21.70
2018-08-08T23:12:14.116Z,21.80
2018-08-08T23:14:43.200Z,21.80
2018-08-08T23:17:12.330Z,21.80
2018-08-08T23:19:41.436Z,21.90
